Time;durP1;ratioP1;P1;durP2;ratioP2;P2;SDS_P1;SDS_P2;PMS_P1;PMS_P2;Temp;Humidity;BMP_temperature;BMP_pressure;BME280_temperature;BME280_humidity;BME280_pressure;Samples;Min_cycle;Max_cycle;Signal;HPM_P1;HPM_P2
2022/09/26 00:01:23;;;;;;;6.55;4.30;;;14.90;64.60;;;;;;4931599;29;20118;-47
2022/09/26 00:03:53;;;;;;;4.47;3.33;;;14.90;64.60;;;;;;4925187;29;20496;-46
2022/09/26 00:06:23;;;;;;;4.55;3.80;;;14.90;64.60;;;;;;4932332;29;20505;-47
2022/09/26 00:08:50;;;;;;;6.70;4.32;;;15.00;64.40;;;;;;4931802;29;20043;-46
2022/09/26 00:11:24;;;;;;;6.20;4.10;;;15.00;64.30;;;;;;4934997;29;20047;-45
2022/09/26 00:13:54;;;;;;;4.70;3.67;;;15.00;64.70;;;;;;4936103;29;20467;-47
2022/09/26 00:16:22;;;;;;;5.30;4.15;;;15.10;64.50;;;;;;4933004;29;20054;-46
2022/09/26 00:18:50;;;;;;;7.70;4.03;;;15.10;64.40;;;;;;4931920;29;20286;-46
2022/09/26 00:21:18;;;;;;;4.57;4.18;;;15.10;64.40;;;;;;4934790;29;20062;-47
2022/09/26 00:23:46;;;;;;;3.80;3.50;;;15.10;64.30;;;;;;4935755;29;20044;-46
2022/09/26 00:26:16;;;;;;;4.28;3.80;;;15.20;64.30;;;;;;4931446;29;20050;-45
2022/09/26 00:28:43;;;;;;;5.55;4.30;;;15.10;64.20;;;;;;4935568;29;20404;-47
2022/09/26 00:31:13;;;;;;;6.00;4.00;;;15.10;64.20;;;;;;4922898;29;20073;-47
2022/09/26 00:33:40;;;;;;;5.10;3.60;;;15.20;64.20;;;;;;4915636;29;20082;-46
2022/09/26 00:36:07;;;;;;;5.18;3.47;;;15.20;64.00;;;;;;4929286;29;20044;-49
2022/09/26 00:38:34;;;;;;;6.05;3.67;;;15.20;64.00;;;;;;4935087;29;20048;-48
2022/09/26 00:41:02;;;;;;;6.72;4.22;;;15.20;64.00;;;;;;4924083;29;20051;-46
2022/09/26 00:43:37;;;;;;;7.07;3.80;;;15.20;64.10;;;;;;4933674;29;20071;-46
2022/09/26 00:46:29;;;;;;;4.45;3.38;;;15.20;64.50;;;;;;4913550;29;20039;-46
2022/09/26 00:49:20;;;;;;;4.72;3.80;;;15.20;64.80;;;;;;4933345;29;20496;-46
2022/09/26 00:52:01;;;;;;;4.22;3.50;;;15.20;64.40;;;;;;4917886;29;20420;-45
2022/09/26 00:54:29;;;;;;;4.05;3.67;;;15.20;64.30;;;;;;4930848;29;20082;-46
2022/09/26 00:57:02;;;;;;;3.65;3.40;;;15.20;64.20;;;;;;4909901;29;20044;-47
2022/09/26 00:59:34;;;;;;;5.60;3.50;;;15.20;64.30;;;;;;4909372;29;20054;-48
2022/09/26 01:02:04;;;;;;;7.17;3.83;;;15.20;64.50;;;;;;4934155;29;20042;-46
2022/09/26 01:04:34;;;;;;;4.07;3.67;;;15.20;64.40;;;;;;4918196;29;20717;-45
2022/09/26 01:07:06;;;;;;;4.28;3.88;;;15.20;64.40;;;;;;4913499;29;20043;-46
2022/09/26 01:09:32;;;;;;;5.05;4.18;;;15.20;64.50;;;;;;4916959;29;20055;-45
2022/09/26 01:12:02;;;;;;;3.67;3.20;;;15.20;64.40;;;;;;4926257;29;20087;-47
2022/09/26 01:14:30;;;;;;;5.68;4.00;;;15.30;64.60;;;;;;4923563;29;20138;-46
2022/09/26 01:16:57;;;;;;;4.50;3.97;;;15.20;64.60;;;;;;4932327;29;20515;-45
2022/09/26 01:19:40;;;;;;;4.47;4.07;;;15.20;64.60;;;;;;4933522;29;20063;-46
2022/09/26 01:22:38;;;;;;;5.57;3.80;;;15.20;65.30;;;;;;4931624;29;20120;-47
2022/09/26 01:25:22;;;;;;;4.80;3.97;;;15.20;64.90;;;;;;4927523;29;20048;-45
2022/09/26 01:28:08;;;;;;;5.57;3.60;;;15.20;65.30;;;;;;4932077;29;20052;-46
2022/09/26 01:30:57;;;;;;;4.60;4.07;;;15.20;65.50;;;;;;4917763;29;20059;-46
2022/09/26 01:33:38;;;;;;;3.78;3.40;;;15.20;65.50;;;;;;4921441;29;20136;-46
2022/09/26 01:36:32;;;;;;;4.93;4.53;;;15.20;65.90;;;;;;4928297;29;20044;-47
2022/09/26 01:39:12;;;;;;;5.63;4.20;;;15.20;65.70;;;;;;4914590;29;20048;-47
2022/09/26 01:42:02;;;;;;;5.45;4.25;;;15.20;65.30;;;;;;4913824;29;20489;-48
2022/09/26 01:44:41;;;;;;;6.18;3.85;;;15.20;66.20;;;;;;4934514;29;20408;-45
2022/09/26 01:47:24;;;;;;;5.82;4.53;;;15.20;65.10;;;;;;4930773;29;20048;-46
2022/09/26 01:50:22;;;;;;;8.57;4.63;;;15.20;66.00;;;;;;4930294;29;20083;-45
2022/09/26 01:52:58;;;;;;;5.75;4.65;;;15.20;66.10;;;;;;4907430;29;20044;-48
2022/09/26 01:55:38;;;;;;;5.20;4.20;;;15.20;65.20;;;;;;4927265;29;20044;-46
2022/09/26 01:58:26;;;;;;;5.95;4.75;;;15.20;65.90;;;;;;4932418;29;20047;-45
2022/09/26 02:00:57;;;;;;;5.43;5.00;;;15.20;66.00;;;;;;4929986;29;20112;-46
2022/09/26 02:03:28;;;;;;;6.43;5.22;;;15.20;65.50;;;;;;4933584;29;20408;-46
2022/09/26 02:05:59;;;;;;;6.28;5.65;;;15.20;65.60;;;;;;4934320;29;20123;-45
2022/09/26 02:08:32;;;;;;;5.93;5.35;;;15.20;65.70;;;;;;4930974;29;20512;-47
2022/09/26 02:11:08;;;;;;;6.57;5.22;;;15.20;65.70;;;;;;4906281;29;20051;-46
2022/09/26 02:13:58;;;;;;;6.18;5.05;;;15.20;65.90;;;;;;4930889;29;20052;-46
2022/09/26 02:16:39;;;;;;;8.07;5.80;;;15.20;65.70;;;;;;4928253;29;20568;-46
2022/09/26 02:19:22;;;;;;;5.75;4.85;;;15.20;65.80;;;;;;4915334;29;20538;-46
2022/09/26 02:21:50;;;;;;;6.72;5.50;;;15.20;66.20;;;;;;4931950;29;20055;-48
2022/09/26 02:24:17;;;;;;;5.90;5.30;;;15.20;65.70;;;;;;4932429;29;20058;-46
2022/09/26 02:26:44;;;;;;;5.90;5.40;;;15.20;65.70;;;;;;4927755;29;20047;-46
2022/09/26 02:29:12;;;;;;;6.40;5.57;;;15.20;65.70;;;;;;4933490;28;20127;-46
2022/09/26 02:31:47;;;;;;;8.32;5.15;;;15.20;65.80;;;;;;4920710;29;20059;-47
2022/09/26 02:34:14;;;;;;;6.22;5.63;;;15.20;66.00;;;;;;4916727;29;20162;-46
2022/09/26 02:36:43;;;;;;;6.30;4.70;;;15.20;65.80;;;;;;4925300;29;20468;-47
2022/09/26 02:39:13;;;;;;;6.75;4.80;;;15.20;65.90;;;;;;4931149;29;20044;-47
2022/09/26 02:41:54;;;;;;;6.38;5.05;;;15.20;65.80;;;;;;4910617;29;20519;-48
2022/09/26 02:44:39;;;;;;;6.55;4.85;;;15.20;65.80;;;;;;4912377;29;20071;-47
2022/09/26 02:47:25;;;;;;;5.53;4.43;;;15.20;66.40;;;;;;4906829;29;20090;-48
2022/09/26 02:50:07;;;;;;;6.00;5.05;;;15.20;66.40;;;;;;4904714;29;20528;-49
2022/09/26 02:53:10;;;;;;;5.50;4.67;;;15.20;66.20;;;;;;4915499;29;20051;-47
2022/09/26 02:55:48;;;;;;;8.10;5.68;;;15.20;66.30;;;;;;4928964;29;20118;-46
2022/09/26 02:58:16;;;;;;;8.35;4.72;;;15.20;65.60;;;;;;4912350;29;20058;-47
2022/09/26 03:00:45;;;;;;;7.85;5.30;;;15.10;65.80;;;;;;4932355;29;20496;-46
2022/09/26 03:03:21;;;;;;;7.57;5.25;;;15.10;65.80;;;;;;4925573;29;20074;-47
2022/09/26 03:05:52;;;;;;;6.00;4.70;;;15.10;66.00;;;;;;4927592;29;20439;-45
2022/09/26 03:08:28;;;;;;;5.85;4.38;;;15.10;65.90;;;;;;4930512;29;20516;-48
2022/09/26 03:10:58;;;;;;;9.82;5.22;;;15.10;66.20;;;;;;4920820;29;20083;-47
2022/09/26 03:13:27;;;;;;;8.25;5.20;;;15.10;65.70;;;;;;4928613;29;20052;-46
2022/09/26 03:15:57;;;;;;;8.05;5.10;;;15.00;65.70;;;;;;4919142;29;20127;-45
2022/09/26 03:18:34;;;;;;;7.53;5.22;;;15.00;65.70;;;;;;4932146;29;20138;-46
2022/09/26 03:21:00;;;;;;;7.05;5.32;;;15.00;65.80;;;;;;4915241;29;20055;-46
2022/09/26 03:23:28;;;;;;;6.30;4.80;;;14.90;65.70;;;;;;4941680;29;20134;-45
2022/09/26 03:26:06;;;;;;;;;;;14.90;65.80;;;;;;4908561;29;20099;-46
2022/09/26 03:28:35;;;;;;;4.72;4.22;;;14.90;66.00;;;;;;4929140;29;19923;-47
2022/09/26 03:31:04;;;;;;;7.75;4.65;;;14.90;65.40;;;;;;4911580;29;20501;-46
2022/09/26 03:33:42;;;;;;;7.63;4.63;;;14.90;65.70;;;;;;4929600;29;20166;-47
2022/09/26 03:36:11;;;;;;;6.28;4.57;;;14.80;65.80;;;;;;4929983;29;20496;-46
2022/09/26 03:38:38;;;;;;;7.00;4.22;;;14.80;66.00;;;;;;4912718;29;20424;-46
2022/09/26 03:41:19;;;;;;;4.57;4.15;;;14.80;66.10;;;;;;4934138;29;20108;-45
2022/09/26 03:44:05;;;;;;;6.07;4.47;;;14.80;66.20;;;;;;4934647;29;20062;-47
2022/09/26 03:46:55;;;;;;;7.95;4.40;;;14.70;66.00;;;;;;4935108;29;20103;-45
2022/09/26 03:49:21;;;;;;;6.10;4.18;;;14.70;66.10;;;;;;4936838;29;20089;-49
2022/09/26 03:51:48;;;;;;;5.32;4.30;;;14.70;66.20;;;;;;4931829;29;20042;-45
2022/09/26 03:54:15;;;;;;;6.35;4.45;;;14.70;66.20;;;;;;4916426;29;20547;-46
2022/09/26 03:56:47;;;;;;;8.40;4.25;;;14.70;66.20;;;;;;4934845;29;20052;-46
2022/09/26 03:59:15;;;;;;;7.35;3.75;;;14.80;66.40;;;;;;4917429;29;20044;-50
2022/09/26 04:01:43;;;;;;;5.15;3.50;;;14.70;66.10;;;;;;4916310;29;20044;-49
2022/09/26 04:04:14;;;;;;;8.95;4.40;;;14.70;66.00;;;;;;4918401;29;20107;-48
2022/09/26 04:06:44;;;;;;;8.25;4.53;;;14.80;66.10;;;;;;4918399;29;20047;-49
2022/09/26 04:09:12;;;;;;;7.35;4.45;;;14.70;65.90;;;;;;4935415;29;20063;-46
2022/09/26 04:11:49;;;;;;;4.82;4.32;;;14.80;66.00;;;;;;4929260;29;20058;-50
2022/09/26 04:14:17;;;;;;;6.38;4.32;;;14.70;65.90;;;;;;4913050;29;20539;-47
2022/09/26 04:16:47;;;;;;;8.02;5.05;;;14.80;65.90;;;;;;4920503;29;20039;-45
2022/09/26 04:19:22;;;;;;;7.28;4.72;;;14.80;65.90;;;;;;4930094;29;20039;-46
2022/09/26 04:21:50;;;;;;;6.93;4.72;;;14.70;65.70;;;;;;4915204;29;20052;-50
2022/09/26 04:24:20;;;;;;;7.65;4.22;;;14.70;65.70;;;;;;4932263;29;20131;-45
2022/09/26 04:26:47;;;;;;;7.38;4.57;;;14.70;65.60;;;;;;4933514;29;20134;-48
2022/09/26 04:29:14;;;;;;;7.63;4.82;;;14.70;65.70;;;;;;4931065;29;20044;-46
2022/09/26 04:32:07;;;;;;;8.45;5.18;;;14.70;65.70;;;;;;4927581;29;20074;-45
2022/09/26 04:34:54;;;;;;;8.82;5.07;;;14.70;65.60;;;;;;4920977;29;20499;-48
2022/09/26 04:37:21;;;;;;;7.78;4.93;;;14.70;65.60;;;;;;4934842;29;20559;-45
2022/09/26 04:39:48;;;;;;;6.95;4.80;;;14.70;65.60;;;;;;4914483;29;20048;-46
2022/09/26 04:42:15;;;;;;;8.30;4.43;;;14.70;65.60;;;;;;4923353;29;20044;-46
2022/09/26 04:44:43;;;;;;;6.03;4.50;;;14.70;65.60;;;;;;4933630;29;20052;-45
2022/09/26 04:47:10;;;;;;;6.40;4.18;;;14.70;65.60;;;;;;4914081;29;20062;-45
2022/09/26 04:49:57;;;;;;;8.73;4.20;;;14.70;65.50;;;;;;4932905;29;20055;-48
2022/09/26 04:52:25;;;;;;;5.50;4.13;;;14.60;65.40;;;;;;4915419;29;20059;-45
2022/09/26 04:54:52;;;;;;;6.72;4.38;;;14.60;65.30;;;;;;4922424;29;20044;-45
2022/09/26 04:57:18;;;;;;;5.22;4.00;;;14.60;65.30;;;;;;4917726;29;20062;-47
2022/09/26 04:59:47;;;;;;;10.52;4.85;;;14.60;65.30;;;;;;4929181;29;20031;-46
2022/09/26 05:02:14;;;;;;;5.05;3.63;;;14.60;65.30;;;;;;4930244;29;20051;-47
2022/09/26 05:04:42;;;;;;;4.43;4.03;;;14.60;65.30;;;;;;4933089;29;20056;-45
2022/09/26 05:07:09;;;;;;;6.68;4.28;;;14.60;65.20;;;;;;4971344;23;20101;-45
2022/09/26 05:09:36;;;;;;;8.30;4.20;;;14.60;65.40;;;;;;4947704;28;20051;-47
2022/09/26 05:12:12;;;;;;;4.93;3.90;;;14.60;65.10;;;;;;4955556;28;20459;-46
2022/09/26 05:14:42;;;;;;;6.88;3.88;;;14.60;65.00;;;;;;4943537;28;20055;-49
2022/09/26 05:17:10;;;;;;;6.82;5.57;;;14.60;64.90;;;;;;4920997;29;20044;-47
2022/09/26 05:19:38;;;;;;;6.72;4.13;;;14.60;64.90;;;;;;4951824;29;20074;-47
2022/09/26 05:22:20;;;;;;;7.85;4.10;;;14.60;64.80;;;;;;4941389;29;20043;-45
2022/09/26 05:27:34;;;;;;;6.25;3.17;;;14.60;64.80;;;;;;4936961;29;20058;-46
2022/09/26 05:30:01;;;;;;;4.47;3.70;;;14.60;64.80;;;;;;4947853;29;20099;-46
2022/09/26 05:32:28;;;;;;;5.78;4.18;;;14.60;64.80;;;;;;4949450;29;20039;-46
2022/09/26 05:34:55;;;;;;;4.00;3.03;;;14.60;64.80;;;;;;4930872;29;20586;-46
2022/09/26 05:37:23;;;;;;;5.65;3.40;;;14.50;64.80;;;;;;4912589;29;20795;-48
2022/09/26 05:42:39;;;;;;;7.10;3.83;;;14.50;64.70;;;;;;4931768;29;20051;-45
2022/09/26 05:45:08;;;;;;;6.38;3.90;;;14.60;64.70;;;;;;4932606;29;20500;-45
2022/09/26 05:47:35;;;;;;;4.82;3.83;;;14.50;64.70;;;;;;4941541;28;20076;-47
2022/09/26 05:50:11;;;;;;;5.35;3.30;;;14.50;64.70;;;;;;4927542;29;20552;-47
2022/09/26 05:52:39;;;;;;;6.15;3.47;;;14.50;64.60;;;;;;4910900;29;20615;-45
2022/09/26 05:55:10;;;;;;;6.78;3.45;;;14.60;64.80;;;;;;4914367;29;20051;-44
2022/09/26 05:57:57;;;;;;;5.45;3.38;;;14.50;64.60;;;;;;4925065;29;20058;-45
2022/09/26 06:00:34;;;;;;;6.25;4.00;;;14.60;64.60;;;;;;4931130;29;20055;-47
2022/09/26 06:03:04;;;;;;;4.68;3.33;;;14.60;64.60;;;;;;4937771;29;20530;-49
2022/09/26 06:05:44;;;;;;;6.07;3.30;;;14.60;64.70;;;;;;4945919;29;20074;-46
2022/09/26 06:08:14;;;;;;;4.72;3.85;;;14.60;64.60;;;;;;4938934;29;20051;-46
2022/09/26 06:10:43;;;;;;;5.07;3.10;;;14.60;64.60;;;;;;4931788;29;20052;-45
2022/09/26 06:13:14;;;;;;;5.88;2.75;;;14.60;64.50;;;;;;4929890;29;20091;-49
2022/09/26 06:15:46;;;;;;;4.35;2.92;;;14.60;64.60;;;;;;4930574;29;20085;-46
2022/09/26 06:18:13;;;;;;;4.18;3.45;;;14.70;64.50;;;;;;4944141;29;20724;-46
2022/09/26 06:20:42;;;;;;;3.40;2.65;;;14.70;64.50;;;;;;4918307;29;20047;-46
2022/09/26 06:23:10;;;;;;;3.47;3.17;;;14.70;64.40;;;;;;4942274;29;20039;-46
2022/09/26 06:25:38;;;;;;;3.38;2.53;;;14.70;64.40;;;;;;4951136;29;20047;-45
2022/09/26 06:28:07;;;;;;;3.28;2.55;;;14.70;64.30;;;;;;4927727;29;20036;-48
2022/09/26 06:30:35;;;;;;;4.18;2.83;;;14.80;64.30;;;;;;4938655;29;20058;-46
2022/09/26 06:33:10;;;;;;;4.00;3.03;;;14.80;64.90;;;;;;4939147;29;20050;-47
2022/09/26 06:36:01;;;;;;;3.65;2.90;;;14.80;64.20;;;;;;4927491;29;20051;-49
2022/09/26 06:38:34;;;;;;;4.32;2.65;;;14.80;64.20;;;;;;4933169;29;20056;-46
2022/09/26 06:41:05;;;;;;;3.40;2.40;;;14.80;64.10;;;;;;4929931;29;20047;-46
2022/09/26 06:43:32;;;;;;;2.88;2.58;;;14.80;64.20;;;;;;4930144;29;20131;-46
2022/09/26 06:46:27;;;;;;;4.00;2.85;;;14.80;64.20;;;;;;4932551;29;20047;-47
2022/09/26 06:48:56;;;;;;;2.50;2.28;;;14.80;64.30;;;;;;4927623;29;20044;-48
2022/09/26 06:51:40;;;;;;;4.55;2.38;;;14.80;64.60;;;;;;4931387;29;20129;-48
2022/09/26 06:54:09;;;;;;;3.22;2.13;;;14.80;64.80;;;;;;4920238;29;20094;-47
2022/09/26 06:56:35;;;;;;;2.72;2.28;;;14.80;64.70;;;;;;4931662;29;20528;-46
2022/09/26 06:59:05;;;;;;;3.30;2.67;;;14.90;64.80;;;;;;4932320;29;20063;-45
2022/09/26 07:01:33;;;;;;;5.45;2.38;;;14.90;65.00;;;;;;4933808;29;20103;-47
2022/09/26 07:04:09;;;;;;;3.05;2.00;;;14.90;65.20;;;;;;4932129;29;20043;-45
2022/09/26 07:06:41;;;;;;;;;;;14.80;65.20;;;;;;4929686;29;20087;-47
2022/09/26 07:09:08;;;;;;;2.53;2.03;;;14.90;65.20;;;;;;4915688;29;20330;-45
2022/09/26 07:12:01;;;;;;;3.85;2.17;;;14.90;64.80;;;;;;4935735;29;20054;-45
2022/09/26 07:14:43;;;;;;;5.50;2.47;;;14.90;65.30;;;;;;4934293;28;20042;-49
2022/09/26 07:17:19;;;;;;;4.00;2.20;;;14.90;65.10;;;;;;4915389;29;20047;-50
2022/09/26 07:20:06;;;;;;;2.80;1.70;;;14.90;65.20;;;;;;4945928;29;20055;-46
2022/09/26 07:23:00;;;;;;;3.70;2.03;;;14.80;65.30;;;;;;4943312;29;20040;-46
2022/09/26 07:25:30;;;;;;;3.95;2.10;;;14.80;65.40;;;;;;4935113;29;20055;-47
2022/09/26 07:27:59;;;;;;;2.90;1.45;;;14.90;65.60;;;;;;4936144;29;20044;-46
2022/09/26 07:30:34;;;;;;;3.75;1.92;;;14.80;65.70;;;;;;4947857;29;20490;-48
2022/09/26 07:33:13;;;;;;;2.75;1.80;;;14.80;66.30;;;;;;4946219;29;20051;-46
2022/09/26 07:35:48;;;;;;;2.88;2.13;;;14.80;65.80;;;;;;4945070;29;20050;-47
2022/09/26 07:38:17;;;;;;;6.15;1.98;;;14.80;66.00;;;;;;4914947;29;20056;-47
2022/09/26 07:40:45;;;;;;;5.05;1.60;;;14.80;65.90;;;;;;4952646;29;20050;-47
2022/09/26 07:43:11;;;;;;;1.60;1.30;;;14.80;65.90;;;;;;4945345;29;20411;-46
2022/09/26 07:51:59;;;;;;;2.08;1.15;;;14.80;65.70;;;;;;4858204;29;20549;-47
2022/09/26 07:54:47;;;;;;;3.55;1.70;;;14.80;65.60;;;;;;4942437;29;20138;-46
2022/09/26 07:57:34;;;;;;;3.03;1.65;;;14.80;65.70;;;;;;4950662;29;20130;-45
2022/09/26 08:00:29;;;;;;;4.38;1.52;;;14.80;66.00;;;;;;4923106;29;20074;-46
2022/09/26 08:03:03;;;;;;;3.17;1.38;;;14.90;66.20;;;;;;4919212;29;20056;-45
2022/09/26 08:05:33;;;;;;;3.38;1.50;;;14.90;66.40;;;;;;4943044;29;20432;-46
2022/09/26 08:08:00;;;;;;;3.05;1.25;;;14.90;66.20;;;;;;4932824;29;20515;-46
2022/09/26 08:10:46;;;;;;;2.47;1.33;;;15.00;65.90;;;;;;4947205;29;20058;-49
2022/09/26 08:13:32;;;;;;;3.33;1.35;;;15.00;66.10;;;;;;4936972;29;20098;-47
2022/09/26 08:16:21;;;;;;;2.40;1.50;;;15.10;66.20;;;;;;4929067;29;20106;-46
2022/09/26 08:18:52;;;;;;;2.58;1.60;;;15.10;66.10;;;;;;4945308;29;20106;-46
2022/09/26 08:21:20;;;;;;;2.05;1.50;;;15.10;66.00;;;;;;4940019;29;20040;-46
2022/09/26 08:23:49;;;;;;;3.63;1.52;;;15.20;66.00;;;;;;4916203;29;20090;-45
2022/09/26 08:26:38;;;;;;;2.30;1.50;;;15.20;66.00;;;;;;4940615;28;20138;-49
2022/09/26 08:29:15;;;;;;;3.03;1.67;;;15.20;66.00;;;;;;4940768;29;20047;-48
2022/09/26 08:31:44;;;;;;;3.40;1.55;;;15.20;65.80;;;;;;4934797;29;20135;-46
2022/09/26 08:34:11;;;;;;;2.80;1.20;;;15.20;65.80;;;;;;4932240;29;20047;-47
2022/09/26 08:36:38;;;;;;;3.72;1.25;;;15.20;65.70;;;;;;4934927;29;20130;-46
2022/09/26 08:39:15;;;;;;;1.73;1.08;;;15.20;66.10;;;;;;4946207;29;20464;-46
2022/09/26 08:42:22;;;;;;;3.30;1.50;;;15.20;66.10;;;;;;4953707;29;20058;-46
2022/09/26 08:48:46;;;;;;;3.03;1.27;;;15.20;66.40;;;;;;4946006;29;20054;-44
2022/09/26 08:51:27;;;;;;;3.03;1.27;;;15.20;66.60;;;;;;4937767;29;20048;-48
2022/09/26 08:54:14;;;;;;;2.00;1.50;;;15.20;66.50;;;;;;4936982;29;20047;-47
2022/09/26 08:56:57;;;;;;;2.55;1.65;;;15.20;66.60;;;;;;4951511;29;20051;-47
2022/09/26 08:59:45;;;;;;;2.22;1.42;;;15.20;66.60;;;;;;4952291;29;20110;-46
2022/09/26 09:02:25;;;;;;;2.20;1.50;;;15.20;66.60;;;;;;4931938;29;20075;-46
2022/09/26 09:05:25;;;;;;;2.00;1.85;;;15.20;66.60;;;;;;4922698;29;20133;-46
2022/09/26 09:08:01;;;;;;;1.08;0.90;;;15.20;66.90;;;;;;4945349;29;20598;-47
2022/09/26 09:10:46;;;;;;;3.22;1.40;;;15.30;66.70;;;;;;4952813;29;20423;-50
2022/09/26 09:13:47;;;;;;;1.38;1.20;;;15.30;67.00;;;;;;4946980;29;20078;-48
2022/09/26 09:16:58;;;;;;;2.65;1.23;;;15.40;67.10;;;;;;4937800;29;20055;-45
2022/09/26 09:20:12;;;;;;;1.13;0.90;;;15.50;67.10;;;;;;4933437;29;20063;-46
2022/09/26 09:22:58;;;;;;;2.58;1.25;;;15.60;67.40;;;;;;4943747;29;20106;-46
2022/09/26 09:25:45;;;;;;;1.95;1.25;;;15.70;67.00;;;;;;4944676;29;20142;-46
2022/09/26 09:28:51;;;;;;;3.10;0.95;;;15.80;67.20;;;;;;4953357;29;20097;-48
2022/09/26 09:31:21;;;;;;;3.25;1.48;;;15.90;66.30;;;;;;4920189;29;20130;-45
2022/09/26 09:34:29;;;;;;;1.97;1.50;;;16.00;66.20;;;;;;4932857;29;20066;-46
2022/09/26 09:37:20;;;;;;;4.28;1.02;;;16.10;65.80;;;;;;4953231;28;20182;-47
2022/09/26 09:40:10;;;;;;;1.52;1.15;;;16.20;65.80;;;;;;4910555;29;20039;-49
2022/09/26 09:42:53;;;;;;;1.63;1.40;;;16.30;65.30;;;;;;4948128;28;20048;-47
2022/09/26 09:45:36;;;;;;;3.78;1.25;;;16.30;65.10;;;;;;4947886;29;20054;-49
2022/09/26 09:48:04;;;;;;;1.65;1.15;;;16.40;64.80;;;;;;4923222;29;20592;-45
2022/09/26 09:50:49;;;;;;;1.88;1.20;;;16.40;65.00;;;;;;4951306;28;20134;-47
2022/09/26 09:53:41;;;;;;;1.73;1.00;;;16.50;64.80;;;;;;4947694;29;20134;-47
2022/09/26 09:56:30;;;;;;;1.63;0.88;;;16.60;64.90;;;;;;4945509;29;20177;-47
2022/09/26 09:59:13;;;;;;;1.83;0.73;;;16.60;64.50;;;;;;4923941;29;20039;-46
2022/09/26 10:02:12;;;;;;;1.15;1.05;;;16.70;64.60;;;;;;4933271;29;20039;-47
2022/09/26 10:04:47;;;;;;;2.35;1.70;;;16.70;64.00;;;;;;4949501;29;20134;-46
2022/09/26 10:07:15;;;;;;;4.18;1.13;;;16.80;64.40;;;;;;4948535;29;20463;-45
2022/09/26 10:09:56;;;;;;;2.08;1.15;;;16.80;63.90;;;;;;4930838;29;20482;-47
2022/09/26 10:12:59;;;;;;;2.85;1.10;;;16.90;63.80;;;;;;4930217;29;20253;-47
2022/09/26 10:15:56;;;;;;;1.20;0.80;;;17.00;63.40;;;;;;4917822;29;20543;-47
2022/09/26 10:19:17;;;;;;;2.33;1.48;;;17.10;63.10;;;;;;4931961;29;20114;-47
2022/09/26 10:21:49;;;;;;;2.23;1.03;;;17.10;62.50;;;;;;4924484;29;20190;-46
2022/09/26 10:24:26;;;;;;;;;;;17.20;62.40;;;;;;4931782;29;20519;-45
2022/09/26 10:27:12;;;;;;;2.47;0.93;;;17.20;62.70;;;;;;4936589;29;19977;-46
2022/09/26 10:29:44;;;;;;;3.38;0.90;;;17.30;62.10;;;;;;4925808;29;20058;-46
2022/09/26 10:32:12;;;;;;;3.35;1.10;;;17.30;62.30;;;;;;4932029;29;20048;-46
2022/09/26 10:35:00;;;;;;;5.18;1.17;;;17.40;62.60;;;;;;4928404;29;20430;-47
2022/09/26 10:37:29;;;;;;;3.25;0.98;;;17.40;62.20;;;;;;4935248;29;20090;-46
2022/09/26 10:40:45;;;;;;;1.73;1.02;;;17.50;61.70;;;;;;4926278;29;20074;-49
2022/09/26 10:43:18;;;;;;;3.33;1.40;;;17.60;60.90;;;;;;4932161;29;20055;-46
2022/09/26 10:45:58;;;;;;;2.78;1.00;;;17.70;61.30;;;;;;4937610;29;20563;-45
2022/09/26 10:48:52;;;;;;;2.13;1.35;;;17.80;60.30;;;;;;4948759;28;20069;-46
2022/09/26 10:51:43;;;;;;;3.55;1.08;;;17.80;60.20;;;;;;4950088;29;20126;-46
2022/09/26 10:54:21;;;;;;;3.80;1.33;;;17.80;60.10;;;;;;4912730;29;20075;-47
2022/09/26 10:56:57;;;;;;;2.35;1.20;;;17.80;60.60;;;;;;4948895;29;20078;-45
2022/09/26 10:59:34;;;;;;;3.00;1.20;;;17.90;60.30;;;;;;4942448;29;20147;-47
2022/09/26 11:02:04;;;;;;;1.60;1.33;;;17.90;59.60;;;;;;4952091;29;20031;-46
2022/09/26 11:07:48;;;;;;;2.13;0.93;;;18.00;59.50;;;;;;4963589;23;20110;-47
2022/09/26 11:10:31;;;;;;;2.15;1.08;;;18.10;59.70;;;;;;4961763;28;20054;-43
2022/09/26 11:13:18;;;;;;;1.98;1.45;;;18.10;59.30;;;;;;4954509;28;20053;-47
2022/09/26 11:16:20;;;;;;;2.67;0.80;;;18.10;59.30;;;;;;4950235;28;20055;-45
2022/09/26 11:19:16;;;;;;;1.13;0.98;;;18.20;58.80;;;;;;4933284;28;20051;-46
2022/09/26 11:22:16;;;;;;;2.13;1.42;;;18.30;58.20;;;;;;4915084;29;20159;-46
2022/09/26 11:24:58;;;;;;;1.73;1.40;;;18.40;58.10;;;;;;4935240;29;20813;-46
2022/09/26 11:27:42;;;;;;;1.77;0.82;;;18.40;58.90;;;;;;4914674;29;20142;-46
2022/09/26 11:30:14;;;;;;;3.45;0.90;;;18.40;58.80;;;;;;4917356;29;20055;-46
2022/09/26 11:32:54;;;;;;;3.08;1.33;;;18.50;58.80;;;;;;4928323;29;20055;-48
2022/09/26 11:35:47;;;;;;;1.70;0.95;;;18.50;59.10;;;;;;4950204;29;20523;-46
2022/09/26 11:38:37;;;;;;;1.25;0.93;;;18.50;58.60;;;;;;4928451;29;20047;-47
2022/09/26 11:41:13;;;;;;;1.67;1.10;;;18.50;58.50;;;;;;4948329;29;20043;-46
2022/09/26 11:43:55;;;;;;;1.08;0.95;;;18.50;58.80;;;;;;4948859;28;20559;-46
2022/09/26 11:47:15;;;;;;;3.53;1.10;;;18.40;59.10;;;;;;4950395;29;20066;-46
2022/09/26 11:50:14;;;;;;;3.15;1.05;;;18.40;58.60;;;;;;4947360;29;20051;-46
2022/09/26 11:53:18;;;;;;;1.60;0.70;;;18.40;58.70;;;;;;4918894;29;20435;-48
2022/09/26 11:56:05;;;;;;;3.03;0.93;;;18.30;58.90;;;;;;4942852;29;20035;-46
2022/09/26 11:58:58;;;;;;;1.70;1.10;;;18.30;59.20;;;;;;4950753;29;20528;-47
2022/09/26 12:01:39;;;;;;;2.85;2.03;;;18.30;58.90;;;;;;4941783;28;20051;-47
2022/09/26 12:04:43;;;;;;;1.77;0.80;;;18.20;58.70;;;;;;4948857;29;20044;-47
2022/09/26 12:07:25;;;;;;;1.55;0.88;;;18.20;58.80;;;;;;4935110;29;20050;-43
2022/09/26 12:10:12;;;;;;;1.20;0.88;;;18.10;59.20;;;;;;4944783;29;20556;-44
2022/09/26 12:13:33;;;;;;;3.58;1.27;;;18.10;59.60;;;;;;4941474;29;20071;-44
2022/09/26 12:16:22;;;;;;;0.80;0.73;;;18.20;59.70;;;;;;4920783;29;20110;-44
2022/09/26 12:19:19;;;;;;;1.55;0.80;;;18.20;59.60;;;;;;4961966;28;20562;-44
2022/09/26 12:22:30;;;;;;;2.80;1.38;;;18.20;58.90;;;;;;4952422;29;20047;-43
2022/09/26 12:25:06;;;;;;;2.35;1.08;;;18.20;59.00;;;;;;4954157;29;20825;-45
2022/09/26 12:27:46;;;;;;;0.70;0.70;;;18.20;59.20;;;;;;4950446;29;20127;-44
2022/09/26 12:30:20;;;;;;;0.77;0.77;;;18.20;59.30;;;;;;4948814;29;20057;-44
2022/09/26 12:33:16;;;;;;;3.80;0.93;;;18.20;59.00;;;;;;4945436;29;20070;-43
2022/09/26 12:35:56;;;;;;;1.23;1.02;;;18.20;58.50;;;;;;4954077;29;20059;-43
2022/09/26 12:38:31;;;;;;;1.63;1.08;;;18.20;59.10;;;;;;4950657;29;20055;-44
2022/09/26 12:41:16;;;;;;;2.38;1.23;;;18.20;59.20;;;;;;4945786;29;20504;-43
2022/09/26 12:44:21;;;;;;;3.58;1.75;;;18.10;59.10;;;;;;4952188;29;20051;-43
2022/09/26 12:46:51;;;;;;;1.98;0.95;;;18.10;59.00;;;;;;4935247;29;20788;-44
2022/09/26 12:49:21;;;;;;;2.72;1.48;;;18.10;59.30;;;;;;4953032;29;20043;-45
2022/09/26 12:51:51;;;;;;;1.67;0.93;;;18.00;59.70;;;;;;4945577;29;20043;-45
2022/09/26 12:54:48;;;;;;;1.27;1.05;;;17.90;60.10;;;;;;4953333;29;20515;-44
2022/09/26 12:57:23;;;;;;;2.78;1.35;;;17.80;60.60;;;;;;4950965;29;20131;-43
2022/09/26 13:00:11;;;;;;;3.30;1.05;;;17.80;61.00;;;;;;4948359;29;20640;-43
2022/09/26 13:03:09;;;;;;;1.83;1.10;;;17.70;61.40;;;;;;4951325;29;20054;-43
2022/09/26 13:05:56;;;;;;;2.97;1.05;;;17.60;61.60;;;;;;4948955;29;20043;-44
2022/09/26 13:08:52;;;;;;;4.07;1.77;;;17.40;62.00;;;;;;4952851;29;20058;-44
2022/09/26 13:11:35;;;;;;;2.67;1.02;;;17.40;62.00;;;;;;4934079;29;20039;-44
2022/09/26 13:14:11;;;;;;;2.67;1.30;;;17.30;62.60;;;;;;4934030;29;20095;-43
2022/09/26 13:16:56;;;;;;;3.78;1.10;;;17.20;62.30;;;;;;4939703;28;20098;-43
2022/09/26 13:19:34;;;;;;;2.22;1.33;;;17.20;62.40;;;;;;4937780;28;20054;-45
2022/09/26 13:22:26;;;;;;;1.85;1.40;;;17.20;62.20;;;;;;4932596;29;20067;-46
2022/09/26 13:25:09;;;;;;;1.95;1.17;;;17.20;62.10;;;;;;4939489;29;20539;-43
2022/09/26 13:27:47;;;;;;;2.35;1.13;;;17.20;62.40;;;;;;4938855;29;20047;-45
2022/09/26 13:30:21;;;;;;;3.78;1.73;;;17.20;62.30;;;;;;4942390;29;20048;-43
2022/09/26 13:33:21;;;;;;;1.67;0.85;;;17.10;62.50;;;;;;4933703;29;20134;-44
2022/09/26 13:35:51;;;;;;;2.25;1.00;;;17.10;62.80;;;;;;4943912;29;20059;-43
2022/09/26 13:38:41;;;;;;;3.17;1.00;;;17.10;62.90;;;;;;4945408;29;20111;-43
2022/09/26 13:41:37;;;;;;;2.47;1.10;;;17.10;63.40;;;;;;4933430;29;20039;-43
2022/09/26 13:44:11;;;;;;;3.63;1.10;;;17.10;63.60;;;;;;4940408;29;20043;-45
2022/09/26 13:47:11;;;;;;;2.88;1.20;;;17.00;63.20;;;;;;4946642;29;20042;-45
2022/09/26 13:49:53;;;;;;;2.13;1.00;;;16.90;63.90;;;;;;4943640;29;20537;-45
2022/09/26 13:52:33;;;;;;;1.75;1.13;;;16.90;64.00;;;;;;4947472;29;20058;-44
2022/09/26 13:55:18;;;;;;;2.03;1.27;;;16.80;64.00;;;;;;4943047;29;20047;-43
2022/09/26 13:58:02;;;;;;;;;;;16.80;64.20;;;;;;4942289;29;20050;-43
2022/09/26 14:00:29;;;;;;;2.35;1.20;;;16.80;64.00;;;;;;4941426;29;19923;-44
2022/09/26 14:03:15;;;;;;;4.25;1.67;;;16.80;63.80;;;;;;4940955;29;20122;-44
2022/09/26 14:05:48;;;;;;;2.08;1.10;;;16.70;64.40;;;;;;4942478;29;20043;-44